createdAt,value
2023-05-03T12:15:40.831Z,3.75
2023-05-03T12:18:10.528Z,3.13
2023-05-03T12:23:11.223Z,3.10
2023-05-03T12:25:40.443Z,7.53
2023-05-03T12:30:33.607Z,2.65
2023-05-03T12:33:04.422Z,3.67
2023-05-03T12:35:34.044Z,4.25
2023-05-03T12:38:03.450Z,2.83
2023-05-03T12:40:34.650Z,2.28
2023-05-03T12:43:02.884Z,2.92
2023-05-03T12:45:34.571Z,4.40
2023-05-03T12:48:02.976Z,5.10
2023-05-03T12:50:32.488Z,3.45
2023-05-03T12:53:02.718Z,2.77
2023-05-03T12:55:34.593Z,3.10
2023-05-03T13:00:37.555Z,3.40
2023-05-03T13:05:37.299Z,2.83
2023-05-03T13:10:36.260Z,2.90
2023-05-03T13:13:04.238Z,2.25
2023-05-03T13:15:31.911Z,2.77
2023-05-03T13:18:03.292Z,3.05
2023-05-03T13:20:31.570Z,3.08
2023-05-03T13:22:59.451Z,3.83
2023-05-03T13:25:27.160Z,3.35
2023-05-03T13:27:55.899Z,4.40
2023-05-03T13:30:24.201Z,3.72
2023-05-03T13:32:52.063Z,4.70
2023-05-03T13:35:21.399Z,2.90
2023-05-03T13:37:49.056Z,4.32
2023-05-03T13:40:16.737Z,2.00
2023-05-03T13:42:44.452Z,3.60
2023-05-03T13:45:13.556Z,3.00
2023-05-03T13:50:15.802Z,2.25
2023-05-03T13:52:45.486Z,2.85
2023-05-03T13:55:13.298Z,5.25
2023-05-03T13:57:40.945Z,3.17
2023-05-03T14:00:12.186Z,3.10
2023-05-03T14:02:39.912Z,5.10
2023-05-03T14:05:08.593Z,3.00
2023-05-03T14:07:36.339Z,3.40
2023-05-03T14:10:07.068Z,4.10
2023-05-03T14:12:37.094Z,3.80
2023-05-03T14:15:05.327Z,4.07
2023-05-03T14:17:33.392Z,3.28
2023-05-03T14:20:01.310Z,3.38
2023-05-03T14:22:29.130Z,3.53
2023-05-03T14:24:56.931Z,2.67
2023-05-03T14:27:26.141Z,4.55
2023-05-03T14:29:55.331Z,3.42
2023-05-03T14:32:25.125Z,3.85
2023-05-03T14:34:52.881Z,2.33
2023-05-03T14:37:20.582Z,3.10
2023-05-03T14:39:48.364Z,3.10
2023-05-03T14:42:16.213Z,3.55
2023-05-03T14:44:45.681Z,5.00
2023-05-03T14:47:13.437Z,13.05
2023-05-03T14:49:41.421Z,2.55
2023-05-03T14:52:09.206Z,2.83
2023-05-03T18:33:29.902Z,7.33
2023-05-03T18:35:57.709Z,5.15
2023-05-03T18:38:25.535Z,4.57
2023-05-03T18:40:54.749Z,5.70
2023-05-03T18:43:22.534Z,4.20
2023-05-03T18:45:50.230Z,4.15
2023-05-03T18:48:17.920Z,6.88
2023-05-03T18:50:46.984Z,4.45
2023-05-03T18:53:15.033Z,5.05
2023-05-03T18:55:43.164Z,7.63
2023-05-03T18:58:10.873Z,7.90
2023-05-03T19:00:38.605Z,5.55
2023-05-03T19:03:06.931Z,5.43
2023-05-03T19:05:34.884Z,5.43
2023-05-03T19:08:03.921Z,5.47
2023-05-03T19:10:31.660Z,5.97
2023-05-03T19:12:59.467Z,6.60
2023-05-03T19:15:27.178Z,5.57
2023-05-03T19:17:54.960Z,5.83
2023-05-03T19:20:22.764Z,7.18
2023-05-03T19:22:50.463Z,6.18
2023-05-03T19:25:19.738Z,8.48
2023-05-03T19:27:47.420Z,6.15
2023-05-03T19:30:15.378Z,6.60
2023-05-03T19:32:43.047Z,7.60
2023-05-03T19:35:11.199Z,6.03
2023-05-03T19:37:38.964Z,7.55
2023-05-03T19:40:07.857Z,6.28
2023-05-03T19:42:37.083Z,6.50
2023-05-03T19:45:05.145Z,6.97
2023-05-03T19:47:33.177Z,8.52
2023-05-03T19:50:00.924Z,6.25
2023-05-03T19:52:28.566Z,6.60
2023-05-03T19:54:57.341Z,9.63
2023-05-03T19:57:25.756Z,6.78
2023-05-03T19:59:54.851Z,8.00
2023-05-03T20:02:24.802Z,8.98
2023-05-03T20:04:52.841Z,8.93
2023-05-03T20:07:20.509Z,7.47
2023-05-03T20:09:48.266Z,8.50
2023-05-03T20:12:15.950Z,7.15
2023-05-03T20:14:43.662Z,7.38
2023-05-03T20:17:13.326Z,10.30
2023-05-03T20:19:41.067Z,7.80
2023-05-03T20:22:08.784Z,9.07
2023-05-03T20:24:36.617Z,7.63
2023-05-03T20:27:04.658Z,7.70
2023-05-03T20:29:32.334Z,8.85
2023-05-03T20:32:00.056Z,9.18
2023-05-03T20:34:29.480Z,11.05
2023-05-03T20:36:57.178Z,11.82
2023-05-03T20:39:24.843Z,9.40
2023-05-03T20:41:52.469Z,9.40
2023-05-03T20:44:20.112Z,11.03
2023-05-03T20:46:47.975Z,11.38
2023-05-03T20:49:15.725Z,11.35
2023-05-03T20:51:44.846Z,10.73
2023-05-03T20:54:12.597Z,11.50
2023-05-03T20:56:40.272Z,11.93
2023-05-03T20:59:08.230Z,11.57
2023-05-03T21:01:39.686Z,11.80
2023-05-03T21:04:07.498Z,10.88
2023-05-03T21:06:36.100Z,11.25
2023-05-03T21:09:05.209Z,8.90
2023-05-03T21:11:32.846Z,9.25
2023-05-03T21:14:01.864Z,9.37
2023-05-03T21:16:29.982Z,8.60
2023-05-03T21:18:57.738Z,7.88
2023-05-03T21:21:25.502Z,9.10
2023-05-03T21:23:53.224Z,7.33
2023-05-03T21:26:22.366Z,7.18
2023-05-03T21:28:50.213Z,7.20
2023-05-03T21:31:17.956Z,7.55
2023-05-03T21:33:45.821Z,7.75
2023-05-03T21:36:13.749Z,6.93
2023-05-03T21:38:42.024Z,6.82
2023-05-03T21:41:09.845Z,7.28
2023-05-03T21:43:38.860Z,6.57
2023-05-03T21:46:08.755Z,6.68
2023-05-03T21:48:36.549Z,7.60
2023-05-03T21:51:04.548Z,6.50
2023-05-03T21:53:33.643Z,5.97
2023-05-03T21:56:01.378Z,6.53
2023-05-03T21:58:29.019Z,6.22
2023-05-03T22:00:58.280Z,7.82
2023-05-03T22:03:25.946Z,10.77
2023-05-03T22:05:53.695Z,7.57
2023-05-03T22:08:21.664Z,7.17
2023-05-03T22:10:49.278Z,6.65
2023-05-03T22:13:18.247Z,6.60
2023-05-03T22:15:46.203Z,6.95
2023-05-03T22:18:15.358Z,6.78
2023-05-03T22:20:43.131Z,7.45
2023-05-03T22:23:10.804Z,6.03
2023-05-03T22:25:38.642Z,8.40
2023-05-03T22:28:06.395Z,6.18
2023-05-03T22:30:34.020Z,7.13
2023-05-03T22:33:01.899Z,6.32
2023-05-03T22:35:30.964Z,5.68
2023-05-03T22:37:58.696Z,6.63
2023-05-03T22:40:26.404Z,8.88
2023-05-03T22:42:54.082Z,7.63
2023-05-03T22:45:21.870Z,5.80
2023-05-03T22:47:49.582Z,7.75
2023-05-03T22:50:17.457Z,6.00
2023-05-03T22:52:46.565Z,6.45
2023-05-03T22:55:14.312Z,7.50
2023-05-03T22:57:42.035Z,6.60
2023-05-03T23:00:11.350Z,6.45
2023-05-03T23:02:39.117Z,6.50
2023-05-03T23:05:07.983Z,6.05
2023-05-03T23:07:35.732Z,6.18
2023-05-03T23:10:06.070Z,8.20
2023-05-03T23:12:34.227Z,7.57
2023-05-03T23:15:01.978Z,8.32
2023-05-03T23:17:29.656Z,6.40
2023-05-03T23:19:57.312Z,8.73
2023-05-03T23:22:24.979Z,7.75
2023-05-03T23:24:52.710Z,8.98
2023-05-03T23:27:21.774Z,6.35
2023-05-03T23:29:50.125Z,6.15
2023-05-03T23:32:18.345Z,6.00
2023-05-03T23:34:46.511Z,7.65
2023-05-03T23:37:14.173Z,6.68
2023-05-03T23:39:45.092Z,6.38
2023-05-03T23:42:13.101Z,6.85
2023-05-03T23:44:54.674Z,5.93
2023-05-03T23:47:23.451Z,7.82
2023-05-03T23:49:51.379Z,6.57
2023-05-03T23:52:20.383Z,6.33
2023-05-03T23:54:48.106Z,6.83
2023-05-03T23:57:15.786Z,5.72
2023-05-03T23:59:44.854Z,6.63
